Time;durP1;ratioP1;P1;durP2;ratioP2;P2;SDS_P1;SDS_P2;PMS_P1;PMS_P2;Temp;Humidity;BMP_temperature;BMP_pressure;BME280_temperature;BME280_humidity;BME280_pressure;Samples;Min_cycle;Max_cycle;Signal;HPM_P1;HPM_P2
2022/12/08 00:01:11;;;;;;;10.68;7.53;;;;;;;3.74;100.00;101050.34;5017924;28;20485;-67
2022/12/08 00:03:38;;;;;;;11.15;8.05;;;;;;;3.67;100.00;101040.47;5008553;28;20052;-68
2022/12/08 00:12:07;;;;;;;14.85;7.38;;;;;;;3.61;100.00;101012.28;4984587;28;20071;-68
2022/12/08 00:14:40;;;;;;;13.23;7.63;;;;;;;3.65;100.00;101012.00;5001020;28;20046;-68
2022/12/08 00:17:09;;;;;;;10.50;7.25;;;;;;;3.66;100.00;101008.47;5014963;28;20103;-69
2022/12/08 00:19:37;;;;;;;;;;;;;;;3.68;100.00;100998.81;5007341;28;20430;-68
2022/12/08 00:22:06;;;;;;;11.30;6.88;;;;;;;3.69;100.00;101002.28;5010363;28;19929;-69
2022/12/08 00:24:37;;;;;;;12.95;7.03;;;;;;;3.71;100.00;101005.59;5007138;28;20056;-67
2022/12/08 00:27:04;;;;;;;10.07;6.60;;;;;;;3.72;100.00;100999.47;5016948;28;20050;-69
2022/12/08 00:29:30;;;;;;;10.23;6.57;;;;;;;3.72;100.00;100997.72;5011834;28;20415;-68
2022/12/08 00:31:57;;;;;;;9.18;5.50;;;;;;;3.65;100.00;100985.25;5005056;28;20056;-67
2022/12/08 00:34:23;;;;;;;9.57;6.10;;;;;;;3.69;100.00;100989.31;4995818;28;20149;-68
2022/12/08 00:36:50;;;;;;;11.32;6.70;;;;;;;3.65;100.00;100980.06;5003482;28;20054;-68
2022/12/08 00:39:17;;;;;;;9.45;6.53;;;;;;;3.68;100.00;100982.44;5013572;28;20056;-68
2022/12/08 00:44:29;;;;;;;9.20;6.00;;;;;;;3.63;100.00;100976.72;5006008;28;20140;-68
2022/12/08 00:46:55;;;;;;;11.38;6.68;;;;;;;3.60;100.00;100975.13;5010609;28;20057;-67
2022/12/08 00:49:22;;;;;;;8.65;6.43;;;;;;;3.56;100.00;100966.72;4999580;28;20045;-68
2022/12/08 00:51:48;;;;;;;12.13;6.50;;;;;;;3.56;100.00;100974.50;5017947;28;20858;-67
2022/12/08 00:54:15;;;;;;;8.70;6.03;;;;;;;3.61;100.00;100974.22;5017452;28;20080;-67
2022/12/08 00:56:42;;;;;;;11.35;6.88;;;;;;;3.59;100.00;100970.91;5022876;28;20053;-69
2022/12/08 00:59:08;;;;;;;9.27;6.30;;;;;;;3.64;100.00;100971.41;5017906;28;20041;-68
2022/12/08 01:01:35;;;;;;;8.23;6.20;;;;;;;3.66;100.00;100966.13;5010888;28;20060;-68
2022/12/08 01:04:06;;;;;;;11.38;6.65;;;;;;;3.67;100.00;100968.63;5019174;28;20139;-69
2022/12/08 01:06:36;;;;;;;11.88;6.75;;;;;;;3.64;100.00;100971.41;5013273;28;20050;-68
2022/12/08 01:09:05;;;;;;;9.55;6.43;;;;;;;3.61;100.00;100971.63;5015732;28;20052;-70
2022/12/08 01:11:33;;;;;;;8.30;5.75;;;;;;;3.67;100.00;100960.03;5007279;28;20057;-68
2022/12/08 01:13:59;;;;;;;7.70;5.15;;;;;;;3.70;100.00;100965.84;5006736;28;20045;-67
2022/12/08 01:16:28;;;;;;;8.95;5.88;;;;;;;3.75;100.00;100958.59;5018258;28;20401;-68
2022/12/08 01:18:56;;;;;;;9.73;5.93;;;;;;;3.70;100.00;100959.81;5020471;28;20060;-67
2022/12/08 01:21:23;;;;;;;9.10;5.70;;;;;;;3.64;100.00;100960.22;5020183;28;20045;-66
2022/12/08 01:23:49;;;;;;;8.45;5.63;;;;;;;3.66;100.00;100955.75;5006700;28;20462;-67
2022/12/08 01:26:18;;;;;;;10.77;6.20;;;;;;;3.73;100.00;100960.47;5024005;28;20132;-67
2022/12/08 01:28:44;;;;;;;8.23;5.70;;;;;;;3.68;100.00;100964.28;5013153;28;20615;-66
2022/12/08 01:31:14;;;;;;;11.32;6.80;;;;;;;3.75;100.00;100961.19;5026646;28;20299;-68
2022/12/08 01:33:41;;;;;;;11.02;6.60;;;;;;;3.71;100.00;100961.50;5008605;28;20184;-66
2022/12/08 01:36:17;;;;;;;12.60;8.18;;;;;;;3.72;100.00;100968.34;5013232;28;20060;-67
2022/12/08 01:38:43;;;;;;;15.13;8.18;;;;;;;3.74;100.00;100958.69;5025694;28;20049;-67
2022/12/08 01:41:15;;;;;;;13.35;7.93;;;;;;;3.79;100.00;100961.00;5013503;28;20537;-66
2022/12/08 01:44:03;;;;;;;11.95;8.50;;;;;;;3.83;100.00;100959.88;5011016;28;20100;-67
2022/12/08 01:46:31;;;;;;;;;;;;;;;3.83;100.00;100958.09;4995548;28;20056;-67
2022/12/08 01:49:04;;;;;;;16.30;10.15;;;;;;;3.80;100.00;100958.28;5014200;28;19983;-66
2022/12/08 01:51:35;;;;;;;15.90;10.05;;;;;;;3.82;100.00;100955.59;5015191;28;20053;-68
2022/12/08 01:54:04;;;;;;;15.77;11.07;;;;;;;3.78;100.00;100954.13;5018738;28;20045;-66
2022/12/08 01:56:35;;;;;;;;;;;;;;;3.81;100.00;100944.41;5012899;28;20092;-67
2022/12/08 01:59:02;;;;;;;15.65;10.95;;;;;;;3.80;100.00;100947.09;5011202;28;19925;-67
2022/12/08 02:01:28;;;;;;;15.85;10.63;;;;;;;3.81;100.00;100947.00;5014856;28;20529;-66
2022/12/08 02:03:58;;;;;;;17.27;11.70;;;;;;;3.85;100.00;100942.44;5003810;28;20081;-67
2022/12/08 02:06:28;;;;;;;16.30;10.90;;;;;;;3.83;100.00;100934.75;5017326;28;20463;-67
2022/12/08 02:08:56;;;;;;;18.23;12.50;;;;;;;3.75;100.00;100932.66;5010406;28;21066;-67
2022/12/08 02:11:23;;;;;;;18.63;11.98;;;;;;;3.74;100.00;100928.41;4992983;28;20120;-67
2022/12/08 02:13:52;;;;;;;14.20;10.38;;;;;;;3.78;100.00;100923.00;4995227;28;20480;-66
2022/12/08 02:16:24;;;;;;;;;;;;;;;3.75;100.00;100924.88;4998000;28;20077;-66
2022/12/08 02:19:24;;;;;;;16.63;10.52;;;;;;;3.78;100.00;100921.22;5011699;28;20338;-67
2022/12/08 02:22:27;;;;;;;17.47;11.27;;;;;;;3.82;100.00;100927.88;5006444;28;20425;-67
2022/12/08 02:25:14;;;;;;;17.58;11.25;;;;;;;3.84;100.00;100936.44;5005653;28;20075;-67
2022/12/08 02:28:00;;;;;;;19.50;11.10;;;;;;;3.84;100.00;100930.38;5008375;28;20038;-67
2022/12/08 02:30:45;;;;;;;18.80;10.23;;;;;;;3.85;100.00;100926.88;5007481;28;20068;-67
2022/12/08 02:33:54;;;;;;;16.83;10.32;;;;;;;3.82;100.00;100921.88;5004719;28;20406;-67
2022/12/08 02:36:31;;;;;;;18.13;11.23;;;;;;;3.88;100.00;100913.69;5017216;28;20057;-66
2022/12/08 02:39:26;;;;;;;17.90;11.00;;;;;;;3.88;100.00;100917.13;5004848;28;20761;-67
2022/12/08 02:42:24;;;;;;;16.42;9.75;;;;;;;3.80;100.00;100908.16;5015088;28;20079;-66
2022/12/08 02:45:02;;;;;;;16.35;10.25;;;;;;;3.76;100.00;100902.34;4991046;28;20506;-67
2022/12/08 02:47:32;;;;;;;15.10;9.40;;;;;;;3.82;100.00;100912.31;5022833;28;20685;-66
2022/12/08 02:49:58;;;;;;;12.70;9.43;;;;;;;3.71;100.00;100902.66;5006474;28;20561;-67
2022/12/08 02:52:25;;;;;;;15.70;9.98;;;;;;;3.72;100.00;100901.72;5016887;28;20053;-68
2022/12/08 02:54:56;;;;;;;17.10;9.70;;;;;;;3.73;100.00;100897.38;5000268;28;20061;-66
2022/12/08 02:57:41;;;;;;;13.48;8.70;;;;;;;3.77;100.00;100896.22;5014194;28;20073;-66
2022/12/08 03:00:15;;;;;;;11.93;7.43;;;;;;;3.82;100.00;100888.97;5010126;28;20136;-66
2022/12/08 03:02:53;;;;;;;11.23;7.22;;;;;;;3.83;100.00;100893.22;5027037;28;20160;-66
2022/12/08 03:05:20;;;;;;;12.10;7.47;;;;;;;3.85;100.00;100886.16;5028469;28;20049;-66
2022/12/08 03:07:56;;;;;;;11.73;7.40;;;;;;;3.89;100.00;100885.03;5010219;28;20144;-68
2022/12/08 03:10:28;;;;;;;11.07;7.13;;;;;;;3.91;100.00;100874.56;5026876;28;20049;-66
2022/12/08 03:13:06;;;;;;;11.30;6.72;;;;;;;3.86;100.00;100863.63;5008196;28;20045;-67
2022/12/08 03:15:35;;;;;;;10.83;6.97;;;;;;;3.86;100.00;100864.50;5027440;28;20140;-67
2022/12/08 03:18:04;;;;;;;11.88;7.20;;;;;;;3.90;100.00;100862.50;5008854;28;20050;-68
2022/12/08 03:20:33;;;;;;;11.57;6.78;;;;;;;3.90;100.00;100860.75;5026923;28;20076;-67
2022/12/08 03:23:04;;;;;;;10.90;7.35;;;;;;;3.89;100.00;100853.88;5023063;28;20049;-66
2022/12/08 03:25:35;;;;;;;11.32;6.93;;;;;;;3.82;100.00;100852.63;5016981;28;20057;-66
2022/12/08 03:28:03;;;;;;;11.60;7.60;;;;;;;3.89;100.00;100850.47;5019045;28;20095;-66
2022/12/08 03:30:35;;;;;;;11.02;7.97;;;;;;;3.81;100.00;100835.41;5022690;28;20057;-67
2022/12/08 03:33:18;;;;;;;11.88;7.45;;;;;;;3.90;100.00;100836.53;5026587;28;20057;-66
2022/12/08 03:35:45;;;;;;;9.77;7.40;;;;;;;3.86;100.00;100840.28;5007890;28;20720;-66
2022/12/08 03:38:14;;;;;;;12.23;7.45;;;;;;;3.90;100.00;100846.94;5007528;28;20449;-66
2022/12/08 03:40:41;;;;;;;11.57;7.57;;;;;;;3.88;100.00;100847.06;5021525;28;20037;-70
2022/12/08 03:43:08;;;;;;;12.40;7.40;;;;;;;3.88;100.00;100841.00;5022244;28;20064;-67
2022/12/08 03:45:35;;;;;;;12.50;8.48;;;;;;;3.78;100.00;100832.19;5024617;28;20057;-68
2022/12/08 03:48:01;;;;;;;10.40;7.32;;;;;;;3.84;100.00;100840.41;5019838;28;20084;-67
2022/12/08 03:50:28;;;;;;;13.07;7.07;;;;;;;3.79;100.00;100832.09;5019728;28;20270;-67
2022/12/08 03:52:54;;;;;;;11.50;6.55;;;;;;;3.76;100.00;100830.53;5020830;28;20077;-68
2022/12/08 03:55:21;;;;;;;9.65;7.00;;;;;;;3.79;100.00;100826.09;5028630;28;20429;-66
2022/12/08 03:57:47;;;;;;;7.75;5.72;;;;;;;3.73;100.00;100822.13;5019672;28;20077;-66
2022/12/08 04:00:15;;;;;;;10.52;5.60;;;;;;;3.79;100.00;100821.72;5027101;28;20573;-67
2022/12/08 04:02:42;;;;;;;9.27;6.05;;;;;;;3.74;100.00;100816.84;5024287;28;20214;-66
2022/12/08 04:05:08;;;;;;;8.27;5.35;;;;;;;3.81;100.00;100817.25;5005898;28;21808;-66
2022/12/08 04:07:35;;;;;;;10.52;5.57;;;;;;;3.81;100.00;100819.84;5025363;28;20128;-67
2022/12/08 04:10:03;;;;;;;9.18;5.15;;;;;;;3.79;100.00;100813.09;4998398;28;20245;-67
2022/12/08 04:12:30;;;;;;;5.47;3.63;;;;;;;3.74;100.00;100811.66;4991840;28;20407;-67
2022/12/08 04:14:56;;;;;;;6.15;4.60;;;;;;;3.72;100.00;100804.88;5020408;28;20136;-66
2022/12/08 04:17:23;;;;;;;7.03;4.18;;;;;;;3.76;100.00;100802.00;5023504;28;20150;-66
2022/12/08 04:19:49;;;;;;;7.13;3.65;;;;;;;3.76;100.00;100812.38;5027167;28;20053;-66
2022/12/08 04:22:16;;;;;;;4.63;3.35;;;;;;;3.83;100.00;100810.19;5022625;28;20418;-67
2022/12/08 04:24:42;;;;;;;5.63;3.47;;;;;;;3.83;100.00;100805.00;5011457;28;20053;-66
2022/12/08 04:27:08;;;;;;;5.70;3.35;;;;;;;3.87;100.00;100805.63;4995448;28;20054;-68
2022/12/08 04:29:35;;;;;;;5.35;3.20;;;;;;;3.88;100.00;100802.94;5023321;28;20128;-68
2022/12/08 04:32:01;;;;;;;5.95;3.13;;;;;;;3.90;100.00;100800.22;5022284;28;20129;-67
2022/12/08 04:34:28;;;;;;;5.20;3.03;;;;;;;3.82;100.00;100789.53;5003354;28;20144;-66
2022/12/08 04:36:54;;;;;;;4.45;2.55;;;;;;;3.83;100.00;100793.81;5019460;28;20128;-70
2022/12/08 04:39:21;;;;;;;4.05;2.72;;;;;;;3.81;100.00;100788.72;5021645;28;20117;-66
2022/12/08 04:41:47;;;;;;;4.35;3.05;;;;;;;3.87;100.00;100788.28;5018673;28;20049;-68
2022/12/08 04:44:14;;;;;;;6.05;3.72;;;;;;;3.89;100.00;100789.00;5010321;28;20064;-66
2022/12/08 04:46:40;;;;;;;5.10;2.90;;;;;;;3.93;100.00;100790.47;5022773;28;20128;-66
2022/12/08 04:49:09;;;;;;;7.40;3.50;;;;;;;3.88;100.00;100796.91;5023524;28;20100;-67
2022/12/08 04:51:35;;;;;;;4.85;2.80;;;;;;;3.88;100.00;100795.16;5019232;28;20457;-66
2022/12/08 04:54:02;;;;;;;4.35;2.92;;;;;;;3.86;100.00;100790.97;5027392;28;20136;-66
2022/12/08 04:56:29;;;;;;;6.82;3.40;;;;;;;3.85;100.00;100799.72;5007058;28;20053;-66
2022/12/08 04:58:55;;;;;;;5.00;3.30;;;;;;;3.78;100.00;100799.28;5005606;28;20054;-66
2022/12/08 05:01:22;;;;;;;8.40;3.35;;;;;;;3.81;100.00;100800.84;5018835;28;20041;-66
2022/12/08 05:03:48;;;;;;;4.65;3.00;;;;;;;3.77;100.00;100789.84;5024250;28;20190;-70
2022/12/08 05:06:15;;;;;;;6.35;3.35;;;;;;;3.68;100.00;100787.88;5024358;28;20071;-70
2022/12/08 05:08:42;;;;;;;5.78;3.88;;;;;;;3.72;100.00;100786.72;5010881;28;20421;-70
2022/12/08 05:11:11;;;;;;;4.70;3.60;;;;;;;3.74;100.00;100780.53;5015032;28;20049;-69
2022/12/08 05:13:38;;;;;;;6.25;3.25;;;;;;;3.73;100.00;100780.63;5014841;28;20061;-70
2022/12/08 05:16:07;;;;;;;5.30;3.70;;;;;;;3.72;100.00;100786.72;5022447;28;20128;-69
2022/12/08 05:18:34;;;;;;;5.85;3.63;;;;;;;3.70;100.00;100778.22;5015938;28;20516;-70
2022/12/08 05:21:03;;;;;;;5.40;3.67;;;;;;;3.76;100.00;100781.25;5022386;28;20046;-70
2022/12/08 05:23:30;;;;;;;7.50;3.70;;;;;;;3.75;100.00;100778.75;4995921;28;20403;-69
2022/12/08 05:25:56;;;;;;;7.07;3.80;;;;;;;3.82;100.00;100774.78;4984366;28;20053;-69
2022/12/08 05:28:23;;;;;;;7.55;4.32;;;;;;;3.81;100.00;100769.72;5025324;28;20108;-69
2022/12/08 05:31:08;;;;;;;7.90;4.20;;;;;;;3.78;100.00;100764.72;5011254;28;20053;-70
2022/12/08 05:33:34;;;;;;;7.40;4.30;;;;;;;3.78;100.00;100780.28;5007249;28;20053;-69
2022/12/08 05:36:00;;;;;;;7.07;4.90;;;;;;;3.76;100.00;100775.19;5015808;28;20329;-69
2022/12/08 05:38:28;;;;;;;6.53;3.83;;;;;;;3.70;100.00;100767.84;5021032;28;20478;-69
2022/12/08 05:40:54;;;;;;;5.05;4.10;;;;;;;3.76;100.00;100772.59;5018153;28;20136;-69
2022/12/08 05:43:21;;;;;;;8.00;4.18;;;;;;;3.77;100.00;100771.69;4989956;28;20128;-70
2022/12/08 05:45:47;;;;;;;7.95;3.72;;;;;;;3.83;100.00;100770.44;5009637;28;20057;-70
2022/12/08 05:48:14;;;;;;;5.82;3.60;;;;;;;3.84;100.00;100767.75;4992343;28;20243;-70
2022/12/08 05:50:46;;;;;;;4.50;3.55;;;;;;;3.86;100.00;100763.28;5014215;28;20060;-71
2022/12/08 05:53:13;;;;;;;4.40;3.03;;;;;;;3.87;100.00;100758.91;5012603;28;20543;-69
2022/12/08 05:55:40;;;;;;;3.08;2.20;;;;;;;3.75;100.00;100761.41;5022270;28;20081;-69
2022/12/08 05:58:11;;;;;;;3.45;2.67;;;;;;;3.69;100.00;100763.59;5019319;28;20049;-69
2022/12/08 06:00:38;;;;;;;4.63;2.28;;;;;;;3.69;100.00;100768.78;5016414;28;20458;-69
2022/12/08 06:03:04;;;;;;;3.58;1.50;;;;;;;3.66;100.00;100763.78;5014489;28;20056;-69
2022/12/08 06:05:32;;;;;;;3.17;1.65;;;;;;;3.70;100.00;100766.06;5003138;28;20080;-69
2022/12/08 06:07:58;;;;;;;2.95;0.80;;;;;;;3.58;100.00;100766.91;5013537;28;20054;-70
2022/12/08 06:10:25;;;;;;;0.80;0.40;;;;;;;3.47;100.00;100757.25;5010807;28;20117;-69
2022/12/08 06:12:51;;;;;;;0.93;0.52;;;;;;;3.52;100.00;100767.31;5027194;28;20041;-69
2022/12/08 06:15:18;;;;;;;3.22;0.52;;;;;;;3.55;100.00;100760.16;5027247;28;20465;-68
2022/12/08 06:17:44;;;;;;;3.95;0.63;;;;;;;3.53;100.00;100756.84;5008166;28;20374;-69
2022/12/08 06:20:11;;;;;;;1.10;0.50;;;;;;;3.58;100.00;100748.75;5019663;28;20054;-69
2022/12/08 06:22:38;;;;;;;1.35;0.70;;;;;;;3.65;100.00;100756.97;5006843;28;20100;-69
2022/12/08 06:25:06;;;;;;;0.90;0.68;;;;;;;3.63;100.00;100757.06;5012284;28;20103;-69
2022/12/08 06:27:35;;;;;;;2.05;0.82;;;;;;;3.66;100.00;100764.63;5004984;28;20050;-69
2022/12/08 06:30:02;;;;;;;2.10;0.70;;;;;;;3.71;100.00;100759.97;5012967;28;20132;-69
2022/12/08 06:32:29;;;;;;;2.22;0.90;;;;;;;3.69;100.00;100764.41;5012772;28;20057;-69
2022/12/08 06:34:56;;;;;;;4.50;1.00;;;;;;;3.63;100.00;100759.66;5017209;28;20107;-70
2022/12/08 06:37:22;;;;;;;4.70;1.27;;;;;;;3.67;100.00;100762.88;5007869;28;20077;-70
2022/12/08 06:39:49;;;;;;;2.90;2.00;;;;;;;3.68;100.00;100754.97;5018486;28;20053;-70
2022/12/08 06:45:00;;;;;;;2.78;1.10;;;;;;;3.75;100.00;100756.22;4999904;28;20726;-70
2022/12/08 06:47:27;;;;;;;5.78;1.13;;;;;;;3.75;100.00;100758.81;5004574;28;20481;-70
2022/12/08 06:49:53;;;;;;;1.88;1.35;;;;;;;3.75;100.00;100753.63;4995578;28;20049;-70
2022/12/08 06:52:19;;;;;;;5.35;1.30;;;;;;;3.78;100.00;100757.75;5005482;28;20053;-70
2022/12/08 06:54:46;;;;;;;9.30;1.67;;;;;;;3.78;100.00;100762.13;5012070;28;20053;-69
2022/12/08 06:57:12;;;;;;;2.10;1.35;;;;;;;3.79;100.00;100756.03;5011345;28;20646;-70
2022/12/08 06:59:39;;;;;;;3.70;1.67;;;;;;;3.78;100.00;100768.16;5017844;28;20054;-70
2022/12/08 07:02:05;;;;;;;5.35;2.08;;;;;;;3.82;100.00;100768.78;5006045;28;20045;-70
2022/12/08 07:04:32;;;;;;;2.22;1.50;;;;;;;3.76;100.00;100763.09;5021464;28;20053;-70
2022/12/08 07:06:58;;;;;;;4.60;1.75;;;;;;;3.81;100.00;100764.53;5013953;28;20069;-70
2022/12/08 07:09:25;;;;;;;2.42;1.60;;;;;;;3.82;100.00;100764.41;5007720;28;20042;-70
2022/12/08 07:11:51;;;;;;;1.80;1.40;;;;;;;3.76;100.00;100765.69;5013795;28;20055;-70
2022/12/08 07:14:22;;;;;;;3.85;1.70;;;;;;;3.71;100.00;100775.53;4998549;28;20053;-70
2022/12/08 07:16:49;;;;;;;2.15;1.48;;;;;;;3.76;100.00;100770.00;5023147;28;20553;-69
2022/12/08 07:19:16;;;;;;;3.53;1.48;;;;;;;3.84;100.00;100775.53;5002090;28;20050;-70
2022/12/08 07:21:43;;;;;;;5.88;1.90;;;;;;;3.79;100.00;100782.78;5019888;28;20551;-70
2022/12/08 07:24:10;;;;;;;4.93;1.40;;;;;;;3.72;100.00;100778.94;5025082;28;20049;-70
2022/12/08 07:26:37;;;;;;;1.63;1.25;;;;;;;3.77;100.00;100776.88;5003402;28;20128;-71
2022/12/08 07:29:03;;;;;;;3.47;1.60;;;;;;;3.73;100.00;100772.84;5014248;28;20050;-71
2022/12/08 07:31:30;;;;;;;1.77;1.30;;;;;;;3.75;100.00;100776.16;5014712;28;20057;-71
2022/12/08 07:33:57;;;;;;;3.40;1.60;;;;;;;3.65;100.00;100775.13;5016841;28;20060;-70
2022/12/08 07:36:23;;;;;;;5.28;1.90;;;;;;;3.67;100.00;100768.06;5019679;28;20053;-70
2022/12/08 07:38:52;;;;;;;2.35;1.50;;;;;;;3.66;100.00;100772.41;5014417;28;20558;-71
2022/12/08 07:41:21;;;;;;;2.90;1.55;;;;;;;3.69;100.00;100764.41;4998755;28;20058;-71
2022/12/08 07:43:49;;;;;;;2.03;1.45;;;;;;;3.63;100.00;100758.81;5007484;28;20053;-71
2022/12/08 07:46:18;;;;;;;2.55;1.60;;;;;;;3.61;100.00;100763.25;5026711;28;20132;-71
2022/12/08 07:48:45;;;;;;;3.67;2.10;;;;;;;3.61;100.00;100761.50;5019359;28;20123;-71
2022/12/08 07:51:13;;;;;;;3.63;1.92;;;;;;;3.67;100.00;100768.88;5011439;28;20080;-71
2022/12/08 07:53:42;;;;;;;3.30;1.55;;;;;;;3.63;100.00;100766.59;5019779;28;20054;-70
2022/12/08 07:56:13;;;;;;;2.00;1.23;;;;;;;3.62;100.00;100764.94;5018983;28;20072;-70
2022/12/08 07:58:40;;;;;;;2.40;1.30;;;;;;;3.63;100.00;100761.41;5028822;28;20082;-71
2022/12/08 08:01:18;;;;;;;1.42;1.02;;;;;;;3.55;100.00;100761.94;5019757;28;20048;-71
2022/12/08 08:03:45;;;;;;;1.38;1.05;;;;;;;3.49;100.00;100760.56;5025273;28;20057;-71
2022/12/08 08:06:11;;;;;;;3.40;1.65;;;;;;;3.50;100.00;100757.03;5019242;28;20510;-70
2022/12/08 08:08:37;;;;;;;2.25;1.00;;;;;;;3.59;100.00;100754.75;5022779;28;20056;-71
2022/12/08 08:11:06;;;;;;;1.90;1.10;;;;;;;3.62;100.00;100757.97;5011263;28;20457;-71
2022/12/08 08:13:44;;;;;;;1.55;0.98;;;;;;;3.57;100.00;100765.25;5025795;28;20128;-71
2022/12/08 08:16:14;;;;;;;1.58;0.90;;;;;;;3.65;100.00;100760.38;5026458;28;20057;-71
2022/12/08 08:18:42;;;;;;;1.52;0.93;;;;;;;3.66;100.00;100763.78;5017689;28;20055;-71
2022/12/08 08:21:08;;;;;;;1.58;1.00;;;;;;;3.70;100.00;100770.44;5022425;28;20045;-71
2022/12/08 08:23:55;;;;;;;1.88;0.93;;;;;;;3.71;100.00;100778.13;5005839;28;20052;-70
2022/12/08 08:26:21;;;;;;;1.60;1.10;;;;;;;3.73;100.00;100772.84;4993920;28;20573;-71
2022/12/08 08:28:48;;;;;;;3.33;1.20;;;;;;;3.71;100.00;100772.09;5006894;28;20142;-71
2022/12/08 08:31:15;;;;;;;1.98;0.82;;;;;;;3.65;100.00;100777.72;5019706;28;20484;-71
2022/12/08 08:33:42;;;;;;;1.15;0.73;;;;;;;3.52;100.00;100772.50;5027113;28;20104;-71
2022/12/08 08:36:09;;;;;;;1.63;0.73;;;;;;;3.42;100.00;100764.50;4998029;28;20908;-72
2022/12/08 08:38:38;;;;;;;1.00;0.80;;;;;;;3.36;100.00;100764.91;4996181;28;20057;-72
2022/12/08 08:41:11;;;;;;;1.70;0.88;;;;;;;3.41;100.00;100770.63;5013567;28;20491;-72
2022/12/08 08:43:39;;;;;;;4.65;0.90;;;;;;;3.40;100.00;100774.13;5022621;28;20054;-71
2022/12/08 08:46:07;;;;;;;1.73;1.00;;;;;;;3.46;100.00;100776.31;5010058;28;20107;-70
2022/12/08 08:48:35;;;;;;;6.78;1.77;;;;;;;3.50;100.00;100779.56;4997665;28;20080;-72
2022/12/08 08:51:09;;;;;;;2.63;0.82;;;;;;;3.50;100.00;100782.13;5010334;28;20087;-71
2022/12/08 08:53:36;;;;;;;1.33;0.88;;;;;;;3.44;100.00;100774.78;5000036;28;20057;-72
2022/12/08 08:56:08;;;;;;;2.78;1.30;;;;;;;3.47;100.00;100771.97;5007431;28;20069;-71
2022/12/08 08:58:34;;;;;;;3.95;1.40;;;;;;;3.41;100.00;100770.63;5012010;28;20386;-71
2022/12/08 09:01:00;;;;;;;1.88;0.93;;;;;;;3.48;100.00;100774.47;5023296;28;20045;-72
2022/12/08 09:03:27;;;;;;;4.90;1.20;;;;;;;3.54;100.00;100773.22;5012102;28;20057;-71
2022/12/08 09:05:54;;;;;;;1.33;0.95;;;;;;;3.62;100.00;100777.91;5008989;28;20057;-71
2022/12/08 09:08:22;;;;;;;6.07;1.60;;;;;;;3.62;100.00;100773.53;5017480;28;20057;-72
2022/12/08 09:10:48;;;;;;;2.47;1.42;;;;;;;3.63;100.00;100777.81;5011900;28;20049;-72
2022/12/08 09:13:15;;;;;;;2.60;1.35;;;;;;;3.66;100.00;100768.97;5017145;28;20490;-72
2022/12/08 09:15:41;;;;;;;3.35;1.77;;;;;;;3.63;100.00;100780.41;5012149;28;20057;-73
2022/12/08 09:18:08;;;;;;;2.85;1.50;;;;;;;3.58;100.00;100777.28;5003500;28;20046;-73
2022/12/08 09:20:34;;;;;;;2.15;1.40;;;;;;;3.55;100.00;100777.50;5015252;28;20354;-73
2022/12/08 09:23:01;;;;;;;2.13;1.60;;;;;;;3.59;100.00;100778.09;5027591;28;20092;-71
2022/12/08 09:25:28;;;;;;;2.53;1.70;;;;;;;3.58;100.00;100772.09;5019519;28;20100;-72
2022/12/08 09:27:54;;;;;;;3.55;2.05;;;;;;;3.51;100.00;100776.84;5017008;28;20057;-71
2022/12/08 09:30:21;;;;;;;4.03;2.03;;;;;;;3.54;100.00;100776.63;5010553;28;20058;-72
2022/12/08 09:32:48;;;;;;;4.40;2.10;;;;;;;3.60;100.00;100780.59;5015835;28;20134;-69
2022/12/08 09:35:15;;;;;;;4.45;2.47;;;;;;;3.63;100.00;100783.00;4992649;28;20069;-67
2022/12/08 09:37:42;;;;;;;4.25;2.33;;;;;;;3.71;100.00;100788.50;5016365;28;20452;-67
2022/12/08 09:40:14;;;;;;;4.55;2.50;;;;;;;3.83;100.00;100781.66;5026785;28;20099;-67
2022/12/08 09:42:49;;;;;;;4.43;2.55;;;;;;;3.87;100.00;100787.47;5021606;28;20057;-67
2022/12/08 09:45:17;;;;;;;4.25;2.08;;;;;;;3.91;100.00;100797.53;4996352;28;20053;-68
2022/12/08 09:47:59;;;;;;;3.35;2.00;;;;;;;3.83;100.00;100796.41;5014719;28;20428;-65
2022/12/08 09:50:30;;;;;;;2.45;1.60;;;;;;;3.75;100.00;100802.91;5007804;28;20111;-68
2022/12/08 09:53:25;;;;;;;2.88;1.90;;;;;;;3.72;100.00;100800.56;5017573;28;20046;-67
2022/12/08 09:56:11;;;;;;;4.93;2.13;;;;;;;3.72;100.00;100792.75;5011185;28;20056;-67
2022/12/08 09:59:01;;;;;;;3.60;2.20;;;;;;;3.82;100.00;100794.72;5002523;28;20141;-67
2022/12/08 10:01:31;;;;;;;3.22;2.08;;;;;;;3.86;100.00;100790.97;5002805;28;20107;-73
2022/12/08 10:03:58;;;;;;;2.80;1.75;;;;;;;3.83;100.00;100786.84;5011681;28;20049;-72
2022/12/08 10:07:15;;;;;;;1.88;1.50;;;;;;;3.72;100.00;100795.34;5010422;28;20065;-70
2022/12/08 10:10:06;;;;;;;2.30;1.57;;;;;;;3.71;100.00;100779.88;5015129;28;20080;-73
2022/12/08 10:12:40;;;;;;;3.00;1.77;;;;;;;3.70;100.00;100784.22;5013337;28;20103;-73
2022/12/08 10:15:45;;;;;;;3.15;1.85;;;;;;;3.76;100.00;100777.78;5005794;28;20057;-73
2022/12/08 10:18:16;;;;;;;2.25;1.48;;;;;;;3.73;100.00;100765.06;4968716;28;20115;-72
2022/12/08 10:20:47;;;;;;;2.83;1.50;;;;;;;3.76;100.00;100776.06;5017037;28;20057;-73
2022/12/08 10:23:20;;;;;;;1.63;1.13;;;;;;;3.83;100.00;100765.25;5024273;28;20053;-73
2022/12/08 10:25:49;;;;;;;1.63;1.08;;;;;;;3.79;100.00;100761.22;5017063;28;20058;-75
2022/12/08 10:28:15;;;;;;;2.10;1.13;;;;;;;3.71;100.00;100759.97;5005296;28;20046;-71
2022/12/08 10:30:42;;;;;;;2.53;1.10;;;;;;;3.70;100.00;100758.28;5005349;28;20046;-74
2022/12/08 10:33:20;;;;;;;1.75;1.10;;;;;;;3.75;100.00;100750.22;5022254;28;20508;-73
2022/12/08 10:35:57;;;;;;;1.55;1.17;;;;;;;3.69;100.00;100743.66;5006925;28;20109;-72
2022/12/08 10:38:35;;;;;;;1.90;1.00;;;;;;;3.63;100.00;100745.84;5019923;28;20053;-73
2022/12/08 10:41:10;;;;;;;1.85;1.20;;;;;;;3.69;100.00;100748.03;5016364;28;20488;-73
2022/12/08 10:43:42;;;;;;;2.17;1.10;;;;;;;3.74;100.00;100741.59;5020325;28;20136;-73
2022/12/08 10:46:12;;;;;;;3.17;1.50;;;;;;;3.72;100.00;100742.63;5022363;28;20045;-73
2022/12/08 10:48:54;;;;;;;2.33;1.40;;;;;;;3.76;100.00;100744.06;5010554;28;20486;-73
2022/12/08 10:51:41;;;;;;;2.05;1.30;;;;;;;3.85;100.00;100747.81;5022168;28;20054;-73
2022/12/08 10:54:33;;;;;;;3.22;1.95;;;;;;;3.90;100.00;100740.53;5012676;28;20053;-70
2022/12/08 10:56:59;;;;;;;1.83;1.15;;;;;;;3.81;100.00;100736.00;4997230;28;20065;-70
2022/12/08 10:59:26;;;;;;;2.58;1.70;;;;;;;3.75;100.00;100734.63;5007975;28;20061;-72
2022/12/08 11:01:54;;;;;;;2.97;1.50;;;;;;;3.64;100.00;100742.31;5024535;28;20076;-72
2022/12/08 11:04:28;;;;;;;;;;;;;;;3.65;100.00;100733.59;5020749;28;20053;-73
2022/12/08 11:06:54;;;;;;;3.72;1.70;;;;;;;3.58;100.00;100740.13;5020702;28;20293;-69
2022/12/08 11:09:24;;;;;;;3.17;1.75;;;;;;;3.63;100.00;100738.91;5017441;28;20077;-72
2022/12/08 11:11:55;;;;;;;3.00;2.15;;;;;;;3.70;100.00;100739.31;5015317;28;20721;-72
2022/12/08 11:14:40;;;;;;;2.78;2.05;;;;;;;3.59;100.00;100734.00;5016733;28;20056;-72
2022/12/08 11:17:22;;;;;;;3.67;2.47;;;;;;;3.70;100.00;100740.13;5017211;28;20176;-72
2022/12/08 11:19:57;;;;;;;3.47;2.08;;;;;;;3.78;100.00;100743.97;5024800;28;20064;-71
2022/12/08 11:22:34;;;;;;;4.32;2.38;;;;;;;3.77;100.00;100743.16;5014142;28;20128;-72
2022/12/08 11:25:11;;;;;;;3.25;2.42;;;;;;;3.80;100.00;100742.91;5015882;28;20517;-72
2022/12/08 11:27:43;;;;;;;3.50;2.60;;;;;;;3.91;100.00;100748.22;5006447;28;20123;-71
2022/12/08 11:30:20;;;;;;;4.18;2.90;;;;;;;3.97;100.00;100737.41;5025857;28;20042;-72
2022/12/08 11:32:56;;;;;;;5.07;2.88;;;;;;;4.02;100.00;100733.66;5028712;28;20073;-72
2022/12/08 11:35:29;;;;;;;5.82;3.40;;;;;;;4.08;100.00;100728.91;5016348;28;20147;-72
2022/12/08 11:38:04;;;;;;;5.05;3.17;;;;;;;4.08;100.00;100731.50;5015068;28;20339;-72
2022/12/08 11:40:51;;;;;;;4.68;3.28;;;;;;;4.06;100.00;100732.53;4997819;28;20517;-72
2022/12/08 11:43:29;;;;;;;5.50;3.25;;;;;;;4.12;100.00;100737.31;5016221;28;20064;-71
2022/12/08 11:46:11;;;;;;;5.70;3.22;;;;;;;4.11;100.00;100728.66;5038549;28;20168;-70
2022/12/08 11:49:00;;;;;;;4.55;3.33;;;;;;;4.27;100.00;100730.19;5050888;28;20076;-70
2022/12/08 11:51:56;;;;;;;3.47;2.83;;;;;;;4.21;100.00;100728.03;5017206;28;20103;-72